sensor_id;sensor_type;location;lat;lon;timestamp;pressure;altitude;pressure_sealevel;temperature;humidity
33404;BME280;19751;40.274;18.268;2023-04-28T00:00:26;101401.25;;;12.57;100.00
33404;BME280;19751;40.274;18.268;2023-04-28T00:02:51;101393.59;;;12.46;100.00
33404;BME280;19751;40.274;18.268;2023-04-28T00:05:18;101396.19;;;12.39;100.00
33404;BME280;19751;40.274;18.268;2023-04-28T00:07:44;101398.41;;;12.35;100.00
33404;BME280;19751;40.274;18.268;2023-04-28T00:10:10;101397.50;;;12.28;100.00
33404;BME280;19751;40.274;18.268;2023-04-28T00:12:35;101396.75;;;12.19;100.00
33404;BME280;19751;40.274;18.268;2023-04-28T00:15:01;101401.34;;;12.11;100.00
33404;BME280;19751;40.274;18.268;2023-04-28T00:17:28;101403.97;;;12.04;100.00
33404;BME280;19751;40.274;18.268;2023-04-28T00:19:53;101399.66;;;11.95;100.00
33404;BME280;19751;40.274;18.268;2023-04-28T00:22:19;101397.69;;;11.89;100.00
33404;BME280;19751;40.274;18.268;2023-04-28T00:24:44;101398.50;;;11.89;100.00
33404;BME280;19751;40.274;18.268;2023-04-28T00:27:09;101403.28;;;11.87;100.00
33404;BME280;19751;40.274;18.268;2023-04-28T00:29:35;101399.91;;;11.85;100.00
33404;BME280;19751;40.274;18.268;2023-04-28T00:32:03;101396.84;;;11.88;100.00
33404;BME280;19751;40.274;18.268;2023-04-28T00:34:32;101401.88;;;11.91;100.00
33404;BME280;19751;40.274;18.268;2023-04-28T00:36:57;101399.34;;;11.90;100.00
33404;BME280;19751;40.274;18.268;2023-04-28T00:39:23;101398.63;;;11.96;100.00
33404;BME280;19751;40.274;18.268;2023-04-28T00:41:51;101405.63;;;12.05;100.00
33404;BME280;19751;40.274;18.268;2023-04-28T00:44:16;101408.81;;;12.09;100.00
33404;BME280;19751;40.274;18.268;2023-04-28T00:46:42;101406.75;;;12.11;100.00
33404;BME280;19751;40.274;18.268;2023-04-28T00:49:08;101412.00;;;12.12;100.00
33404;BME280;19751;40.274;18.268;2023-04-28T00:51:34;101409.75;;;12.16;100.00
33404;BME280;19751;40.274;18.268;2023-04-28T00:54:00;101419.19;;;12.20;100.00
33404;BME280;19751;40.274;18.268;2023-04-28T00:56:27;101421.22;;;12.18;100.00
33404;BME280;19751;40.274;18.268;2023-04-28T00:58:55;101419.19;;;12.20;100.00
33404;BME280;19751;40.274;18.268;2023-04-28T01:01:21;101420.66;;;12.23;100.00
33404;BME280;19751;40.274;18.268;2023-04-28T01:03:47;101422.34;;;12.24;100.00
33404;BME280;19751;40.274;18.268;2023-04-28T01:06:13;101428.13;;;12.21;100.00
33404;BME280;19751;40.274;18.268;2023-04-28T01:08:39;101426.59;;;12.18;100.00
33404;BME280;19751;40.274;18.268;2023-04-28T01:11:06;101426.06;;;12.23;100.00
33404;BME280;19751;40.274;18.268;2023-04-28T01:13:34;101427.91;;;12.22;100.00
33404;BME280;19751;40.274;18.268;2023-04-28T01:16:00;101424.59;;;12.20;100.00
33404;BME280;19751;40.274;18.268;2023-04-28T01:18:25;101418.97;;;12.22;100.00
33404;BME280;19751;40.274;18.268;2023-04-28T01:20:51;101423.47;;;12.29;100.00
33404;BME280;19751;40.274;18.268;2023-04-28T01:23:17;101424.03;;;12.39;100.00
33404;BME280;19751;40.274;18.268;2023-04-28T01:25:43;101423.94;;;12.48;100.00
33404;BME280;19751;40.274;18.268;2023-04-28T01:28:09;101419.09;;;12.43;99.49
33404;BME280;19751;40.274;18.268;2023-04-28T01:30:35;101433.09;;;12.47;99.75
33404;BME280;19751;40.274;18.268;2023-04-28T01:33:01;101440.56;;;12.44;98.54
33404;BME280;19751;40.274;18.268;2023-04-28T01:35:27;101440.34;;;12.46;98.33
33404;BME280;19751;40.274;18.268;2023-04-28T01:37:52;101446.03;;;12.51;97.50
33404;BME280;19751;40.274;18.268;2023-04-28T01:40:18;101446.50;;;12.55;97.58
33404;BME280;19751;40.274;18.268;2023-04-28T01:42:43;101437.00;;;12.59;97.05
33404;BME280;19751;40.274;18.268;2023-04-28T01:45:09;101441.22;;;12.61;96.89
33404;BME280;19751;40.274;18.268;2023-04-28T01:47:35;101441.50;;;12.66;96.37
33404;BME280;19751;40.274;18.268;2023-04-28T01:50:00;101443.34;;;12.66;95.74
33404;BME280;19751;40.274;18.268;2023-04-28T01:52:26;101443.34;;;12.66;96.13
33404;BME280;19751;40.274;18.268;2023-04-28T01:54:53;101437.13;;;12.65;96.09
33404;BME280;19751;40.274;18.268;2023-04-28T01:57:18;101443.53;;;12.64;95.71
33404;BME280;19751;40.274;18.268;2023-04-28T01:59:44;101448.75;;;12.66;96.10
33404;BME280;19751;40.274;18.268;2023-04-28T02:02:09;101448.75;;;12.66;96.26
33404;BME280;19751;40.274;18.268;2023-04-28T02:04:37;101435.88;;;12.68;96.33
33404;BME280;19751;40.274;18.268;2023-04-28T02:07:02;101443.44;;;12.58;95.18
33404;BME280;19751;40.274;18.268;2023-04-28T02:09:28;101458.44;;;12.46;95.54
33404;BME280;19751;40.274;18.268;2023-04-28T02:11:53;101458.88;;;12.34;96.61
33404;BME280;19751;40.274;18.268;2023-04-28T02:14:19;101464.19;;;12.28;97.34
33404;BME280;19751;40.274;18.268;2023-04-28T02:16:45;101463.03;;;12.22;97.02
33404;BME280;19751;40.274;18.268;2023-04-28T02:19:10;101461.72;;;12.18;96.46
33404;BME280;19751;40.274;18.268;2023-04-28T02:21:36;101463.31;;;12.12;96.51
33404;BME280;19751;40.274;18.268;2023-04-28T02:24:01;101458.25;;;12.09;96.85
33404;BME280;19751;40.274;18.268;2023-04-28T02:26:27;101456.38;;;12.10;97.13
33404;BME280;19751;40.274;18.268;2023-04-28T02:28:52;101465.16;;;12.12;97.19
33404;BME280;19751;40.274;18.268;2023-04-28T02:31:18;101459.22;;;12.16;97.55
33404;BME280;19751;40.274;18.268;2023-04-28T02:33:43;101463.50;;;12.26;97.94
33404;BME280;19751;40.274;18.268;2023-04-28T02:36:09;101466.34;;;12.32;98.74
33404;BME280;19751;40.274;18.268;2023-04-28T02:38:35;101467.44;;;12.38;99.05
33404;BME280;19751;40.274;18.268;2023-04-28T02:41:02;101474.38;;;12.40;98.59
33404;BME280;19751;40.274;18.268;2023-04-28T02:43:32;101475.00;;;12.42;99.19
33404;BME280;19751;40.274;18.268;2023-04-28T02:45:58;101482.47;;;12.40;98.83
33404;BME280;19751;40.274;18.268;2023-04-28T02:48:24;101476.22;;;12.40;98.74
33404;BME280;19751;40.274;18.268;2023-04-28T02:50:50;101477.69;;;12.42;99.35
33404;BME280;19751;40.274;18.268;2023-04-28T02:53:17;101486.66;;;12.43;99.80
33404;BME280;19751;40.274;18.268;2023-04-28T02:55:43;101485.72;;;12.51;100.00
33404;BME280;19751;40.274;18.268;2023-04-28T02:58:09;101485.72;;;12.51;100.00
33404;BME280;19751;40.274;18.268;2023-04-28T03:00:34;101500.81;;;12.45;100.00
33404;BME280;19751;40.274;18.268;2023-04-28T03:03:00;101497.28;;;12.44;100.00
33404;BME280;19751;40.274;18.268;2023-04-28T03:05:26;101500.34;;;12.41;100.00
33404;BME280;19751;40.274;18.268;2023-04-28T03:07:52;101508.25;;;12.28;98.85
33404;BME280;19751;40.274;18.268;2023-04-28T03:10:17;101504.09;;;12.17;99.75
33404;BME280;19751;40.274;18.268;2023-04-28T03:12:42;101506.50;;;12.12;100.00
33404;BME280;19751;40.274;18.268;2023-04-28T03:15:08;101502.50;;;12.08;100.00
33404;BME280;19751;40.274;18.268;2023-04-28T03:17:34;101503.63;;;12.14;100.00
33404;BME280;19751;40.274;18.268;2023-04-28T03:20:06;101508.94;;;12.22;100.00
33404;BME280;19751;40.274;18.268;2023-04-28T03:22:33;101517.66;;;12.32;100.00
33404;BME280;19751;40.274;18.268;2023-04-28T03:24:58;101519.91;;;12.43;100.00
33404;BME280;19751;40.274;18.268;2023-04-28T03:27:24;101513.78;;;12.50;100.00
33404;BME280;19751;40.274;18.268;2023-04-28T03:29:50;101510.34;;;12.56;100.00
33404;BME280;19751;40.274;18.268;2023-04-28T03:32:15;101508.94;;;12.60;100.00
33404;BME280;19751;40.274;18.268;2023-04-28T03:34:41;101512.47;;;12.60;100.00
33404;BME280;19751;40.274;18.268;2023-04-28T03:37:06;101514.34;;;12.60;100.00
33404;BME280;19751;40.274;18.268;2023-04-28T03:39:32;101525.16;;;12.60;100.00
33404;BME280;19751;40.274;18.268;2023-04-28T03:41:57;101534.97;;;12.61;100.00
33404;BME280;19751;40.274;18.268;2023-04-28T03:44:23;101526.66;;;12.62;100.00
33404;BME280;19751;40.274;18.268;2023-04-28T03:46:49;101532.91;;;12.63;100.00
33404;BME280;19751;40.274;18.268;2023-04-28T03:49:15;101528.91;;;12.59;100.00
33404;BME280;19751;40.274;18.268;2023-04-28T03:51:40;101538.75;;;12.52;100.00
33404;BME280;19751;40.274;18.268;2023-04-28T03:54:06;101526.81;;;12.46;100.00
33404;BME280;19751;40.274;18.268;2023-04-28T03:56:32;101525.22;;;12.37;100.00
33404;BME280;19751;40.274;18.268;2023-04-28T03:58:58;101526.00;;;12.23;100.00
33404;BME280;19751;40.274;18.268;2023-04-28T04:01:23;101528.59;;;12.16;100.00
33404;BME280;19751;40.274;18.268;2023-04-28T04:03:49;101524.56;;;12.12;100.00
33404;BME280;19751;40.274;18.268;2023-04-28T04:06:15;101538.91;;;12.12;100.00
33404;BME280;19751;40.274;18.268;2023-04-28T04:08:41;101540.41;;;12.15;100.00
33404;BME280;19751;40.274;18.268;2023-04-28T04:11:06;101543.41;;;12.20;100.00
33404;BME280;19751;40.274;18.268;2023-04-28T04:13:32;101548.38;;;12.31;100.00
33404;BME280;19751;40.274;18.268;2023-04-28T04:15:57;101548.69;;;12.36;100.00
33404;BME280;19751;40.274;18.268;2023-04-28T04:18:23;101547.66;;;12.37;100.00
33404;BME280;19751;40.274;18.268;2023-04-28T04:20:49;101545.50;;;12.33;100.00
33404;BME280;19751;40.274;18.268;2023-04-28T04:23:14;101544.00;;;12.30;100.00
33404;BME280;19751;40.274;18.268;2023-04-28T04:25:40;101545.03;;;12.29;100.00
33404;BME280;19751;40.274;18.268;2023-04-28T04:28:06;101544.53;;;12.26;100.00
33404;BME280;19751;40.274;18.268;2023-04-28T04:30:32;101546.97;;;12.21;100.00
33404;BME280;19751;40.274;18.268;2023-04-28T04:32:57;101562.97;;;12.22;100.00
33404;BME280;19751;40.274;18.268;2023-04-28T04:35:23;101560.75;;;12.26;100.00
33404;BME280;19751;40.274;18.268;2023-04-28T04:37:49;101557.03;;;12.27;100.00
33404;BME280;19751;40.274;18.268;2023-04-28T04:40:15;101557.16;;;12.33;100.00
33404;BME280;19751;40.274;18.268;2023-04-28T04:42:40;101560.69;;;12.34;100.00
33404;BME280;19751;40.274;18.268;2023-04-28T04:45:07;101555.72;;;12.46;100.00
33404;BME280;19751;40.274;18.268;2023-04-28T04:47:32;101555.44;;;12.55;100.00
33404;BME280;19751;40.274;18.268;2023-04-28T04:49:58;101558.53;;;12.67;100.00
33404;BME280;19751;40.274;18.268;2023-04-28T04:52:23;101557.44;;;12.76;100.00
33404;BME280;19751;40.274;18.268;2023-04-28T04:54:49;101561.94;;;12.84;100.00
33404;BME280;19751;40.274;18.268;2023-04-28T04:57:15;101562.03;;;12.90;100.00
33404;BME280;19751;40.274;18.268;2023-04-28T04:59:40;101564.34;;;12.93;100.00
33404;BME280;19751;40.274;18.268;2023-04-28T05:02:06;101567.94;;;12.94;100.00
33404;BME280;19751;40.274;18.268;2023-04-28T05:04:31;101563.16;;;12.96;100.00
33404;BME280;19751;40.274;18.268;2023-04-28T05:06:57;101563.28;;;13.03;100.00
33404;BME280;19751;40.274;18.268;2023-04-28T05:09:22;101566.72;;;13.11;100.00
33404;BME280;19751;40.274;18.268;2023-04-28T05:11:48;101573.91;;;13.19;100.00
33404;BME280;19751;40.274;18.268;2023-04-28T05:14:13;101567.13;;;13.23;100.00
33404;BME280;19751;40.274;18.268;2023-04-28T05:16:40;101572.47;;;13.31;100.00
33404;BME280;19751;40.274;18.268;2023-04-28T05:19:06;101575.44;;;13.36;100.00
33404;BME280;19751;40.274;18.268;2023-04-28T05:21:31;101576.53;;;13.42;100.00
33404;BME280;19751;40.274;18.268;2023-04-28T05:23:56;101578.69;;;13.47;100.00
33404;BME280;19751;40.274;18.268;2023-04-28T05:26:22;101579.97;;;13.51;100.00
33404;BME280;19751;40.274;18.268;2023-04-28T05:28:48;101586.53;;;13.56;100.00
33404;BME280;19751;40.274;18.268;2023-04-28T05:31:13;101591.38;;;13.61;100.00
33404;BME280;19751;40.274;18.268;2023-04-28T05:33:39;101584.16;;;13.68;100.00
33404;BME280;19751;40.274;18.268;2023-04-28T05:36:05;101592.38;;;13.75;100.00
33404;BME280;19751;40.274;18.268;2023-04-28T05:38:31;101580.22;;;13.85;100.00
33404;BME280;19751;40.274;18.268;2023-04-28T05:40:58;101588.66;;;13.97;100.00
33404;BME280;19751;40.274;18.268;2023-04-28T05:43:23;101589.78;;;14.03;100.00
33404;BME280;19751;40.274;18.268;2023-04-28T05:45:49;101586.13;;;14.10;100.00
33404;BME280;19751;40.274;18.268;2023-04-28T05:48:14;101581.41;;;14.19;100.00
33404;BME280;19751;40.274;18.268;2023-04-28T05:50:40;101585.47;;;14.30;100.00
33404;BME280;19751;40.274;18.268;2023-04-28T05:53:06;101584.13;;;14.40;100.00
33404;BME280;19751;40.274;18.268;2023-04-28T05:55:32;101579.63;;;14.48;100.00
33404;BME280;19751;40.274;18.268;2023-04-28T05:57:58;101573.44;;;14.54;100.00
33404;BME280;19751;40.274;18.268;2023-04-28T06:00:24;101583.94;;;14.63;100.00
33404;BME280;19751;40.274;18.268;2023-04-28T06:02:50;101583.78;;;14.72;100.00
33404;BME280;19751;40.274;18.268;2023-04-28T06:05:15;101590.31;;;14.77;100.00
33404;BME280;19751;40.274;18.268;2023-04-28T06:07:41;101596.63;;;14.84;100.00
33404;BME280;19751;40.274;18.268;2023-04-28T06:10:07;101596.88;;;14.89;100.00
33404;BME280;19751;40.274;18.268;2023-04-28T06:12:33;101600.66;;;14.95;100.00
33404;BME280;19751;40.274;18.268;2023-04-28T06:14:58;101612.59;;;15.01;100.00
33404;BME280;19751;40.274;18.268;2023-04-28T06:17:24;101602.84;;;15.06;100.00
33404;BME280;19751;40.274;18.268;2023-04-28T06:19:49;101605.59;;;15.13;100.00
33404;BME280;19751;40.274;18.268;2023-04-28T06:22:18;101592.69;;;15.15;100.00
33404;BME280;19751;40.274;18.268;2023-04-28T06:24:44;101604.38;;;15.15;100.00
33404;BME280;19751;40.274;18.268;2023-04-28T06:27:09;101609.41;;;15.19;100.00
33404;BME280;19751;40.274;18.268;2023-04-28T06:29:35;101602.13;;;15.26;100.00
33404;BME280;19751;40.274;18.268;2023-04-28T06:32:00;101599.84;;;15.29;100.00
33404;BME280;19751;40.274;18.268;2023-04-28T06:34:26;101599.47;;;15.32;100.00
33404;BME280;19751;40.274;18.268;2023-04-28T06:36:57;101598.03;;;15.36;100.00
33404;BME280;19751;40.274;18.268;2023-04-28T06:39:22;101597.41;;;15.41;100.00
33404;BME280;19751;40.274;18.268;2023-04-28T06:41:48;101605.78;;;15.46;98.49
33404;BME280;19751;40.274;18.268;2023-04-28T06:44:13;101601.03;;;15.48;95.30
33404;BME280;19751;40.274;18.268;2023-04-28T06:46:39;101610.44;;;15.52;90.93
33404;BME280;19751;40.274;18.268;2023-04-28T06:49:05;101607.50;;;15.54;87.64
33404;BME280;19751;40.274;18.268;2023-04-28T06:51:30;101609.84;;;15.57;85.45
33404;BME280;19751;40.274;18.268;2023-04-28T06:53:59;101616.31;;;15.62;86.33
33404;BME280;19751;40.274;18.268;2023-04-28T06:56:25;101608.00;;;15.64;82.34
33404;BME280;19751;40.274;18.268;2023-04-28T06:58:51;101614.91;;;15.66;80.39
33404;BME280;19751;40.274;18.268;2023-04-28T07:01:17;101611.59;;;15.71;79.11
33404;BME280;19751;40.274;18.268;2023-04-28T07:03:42;101613.91;;;15.74;78.60
33404;BME280;19751;40.274;18.268;2023-04-28T07:06:08;101609.75;;;15.78;78.43
33404;BME280;19751;40.274;18.268;2023-04-28T07:08:34;101616.84;;;15.79;77.14
33404;BME280;19751;40.274;18.268;2023-04-28T07:11:00;101619.16;;;15.82;76.70
33404;BME280;19751;40.274;18.268;2023-04-28T07:13:29;101617.72;;;15.86;77.09
33404;BME280;19751;40.274;18.268;2023-04-28T07:15:55;101627.78;;;15.93;78.09
33404;BME280;19751;40.274;18.268;2023-04-28T07:18:21;101630.53;;;15.99;78.94
33404;BME280;19751;40.274;18.268;2023-04-28T07:20:46;101628.03;;;16.04;78.13
33404;BME280;19751;40.274;18.268;2023-04-28T07:23:13;101629.94;;;16.10;75.33
33404;BME280;19751;40.274;18.268;2023-04-28T07:25:38;101627.00;;;16.12;74.55
33404;BME280;19751;40.274;18.268;2023-04-28T07:28:08;101633.72;;;16.16;74.93
33404;BME280;19751;40.274;18.268;2023-04-28T07:30:34;101641.25;;;16.21;76.12
33404;BME280;19751;40.274;18.268;2023-04-28T07:33:00;101635.38;;;16.17;66.54
33404;BME280;19751;40.274;18.268;2023-04-28T07:35:27;101645.41;;;16.16;67.84
33404;BME280;19751;40.274;18.268;2023-04-28T07:37:53;101627.88;;;16.19;68.69
33404;BME280;19751;40.274;18.268;2023-04-28T07:40:19;101637.06;;;16.25;70.19
33404;BME280;19751;40.274;18.268;2023-04-28T07:42:45;101632.72;;;16.30;70.81
33404;BME280;19751;40.274;18.268;2023-04-28T07:45:11;101639.00;;;16.31;70.34
33404;BME280;19751;40.274;18.268;2023-04-28T07:47:37;101645.03;;;16.33;70.65
33404;BME280;19751;40.274;18.268;2023-04-28T07:50:03;101641.69;;;16.37;71.88
33404;BME280;19751;40.274;18.268;2023-04-28T07:52:31;101643.41;;;16.38;70.62
33404;BME280;19751;40.274;18.268;2023-04-28T07:54:57;101646.94;;;16.39;68.24
33404;BME280;19751;40.274;18.268;2023-04-28T07:57:23;101644.66;;;16.43;67.08
33404;BME280;19751;40.274;18.268;2023-04-28T07:59:49;101642.56;;;16.45;66.13
33404;BME280;19751;40.274;18.268;2023-04-28T08:02:14;101650.09;;;16.49;65.80
33404;BME280;19751;40.274;18.268;2023-04-28T08:04:40;101651.56;;;16.52;66.21
33404;BME280;19751;40.274;18.268;2023-04-28T08:07:06;101646.13;;;16.58;66.78
33404;BME280;19751;40.274;18.268;2023-04-28T08:09:32;101648.44;;;16.61;66.76
33404;BME280;19751;40.274;18.268;2023-04-28T08:11:59;101647.19;;;16.64;66.37
33404;BME280;19751;40.274;18.268;2023-04-28T08:14:26;101653.25;;;16.66;63.13
33404;BME280;19751;40.274;18.268;2023-04-28T08:16:52;101651.59;;;16.65;59.36
33404;BME280;19751;40.274;18.268;2023-04-28T08:19:17;101655.16;;;16.65;59.55
33404;BME280;19751;40.274;18.268;2023-04-28T08:21:43;101659.34;;;16.68;58.93
33404;BME280;19751;40.274;18.268;2023-04-28T08:24:09;101659.34;;;16.68;59.06
33404;BME280;19751;40.274;18.268;2023-04-28T08:26:36;101661.00;;;16.69;57.52
33404;BME280;19751;40.274;18.268;2023-04-28T08:29:02;101665.41;;;16.70;54.49
33404;BME280;19751;40.274;18.268;2023-04-28T08:31:27;101669.78;;;16.71;53.84
33404;BME280;19751;40.274;18.268;2023-04-28T08:33:53;101683.66;;;16.76;52.81
33404;BME280;19751;40.274;18.268;2023-04-28T08:36:18;101670.06;;;16.76;51.60
33404;BME280;19751;40.274;18.268;2023-04-28T08:38:44;101669.84;;;16.78;50.79
33404;BME280;19751;40.274;18.268;2023-04-28T08:41:12;101672.59;;;16.84;50.08
33404;BME280;19751;40.274;18.268;2023-04-28T08:43:38;101673.63;;;16.90;49.22
33404;BME280;19751;40.274;18.268;2023-04-28T08:46:07;101672.78;;;16.89;46.69
33404;BME280;19751;40.274;18.268;2023-04-28T08:48:41;101684.09;;;16.93;46.42
33404;BME280;19751;40.274;18.268;2023-04-28T08:51:14;101671.31;;;17.00;45.87
33404;BME280;19751;40.274;18.268;2023-04-28T08:53:43;101674.66;;;17.02;45.83
33404;BME280;19751;40.274;18.268;2023-04-28T08:56:10;101675.72;;;17.01;45.09
33404;BME280;19751;40.274;18.268;2023-04-28T08:58:39;101678.63;;;17.00;44.09
33404;BME280;19751;40.274;18.268;2023-04-28T09:01:04;101674.03;;;17.00;42.89
33404;BME280;19751;40.274;18.268;2023-04-28T09:03:33;101677.81;;;17.06;43.48
33404;BME280;19751;40.274;18.268;2023-04-28T09:06:00;101682.63;;;17.10;43.42
33404;BME280;19751;40.274;18.268;2023-04-28T09:08:26;101679.28;;;17.15;43.47
33404;BME280;19751;40.274;18.268;2023-04-28T09:11:08;101680.53;;;17.12;43.39
33404;BME280;19751;40.274;18.268;2023-04-28T09:13:34;101674.25;;;17.12;43.31
33404;BME280;19751;40.274;18.268;2023-04-28T09:16:01;101676.56;;;17.15;43.10
33404;BME280;19751;40.274;18.268;2023-04-28T09:18:28;101678.44;;;17.14;43.53
33404;BME280;19751;40.274;18.268;2023-04-28T09:21:02;101674.47;;;17.17;43.45
33404;BME280;19751;40.274;18.268;2023-04-28T09:23:28;101678.22;;;17.16;43.06
33404;BME280;19751;40.274;18.268;2023-04-28T09:26:04;101678.22;;;17.16;43.18
33404;BME280;19751;40.274;18.268;2023-04-28T09:28:32;101676.97;;;17.19;42.34
33404;BME280;19751;40.274;18.268;2023-04-28T09:30:58;101668.16;;;17.17;42.11
33404;BME280;19751;40.274;18.268;2023-04-28T09:33:24;101674.25;;;17.19;41.98
33404;BME280;19751;40.274;18.268;2023-04-28T09:35:50;101676.34;;;17.23;42.34
33404;BME280;19751;40.274;18.268;2023-04-28T09:38:16;101671.91;;;17.29;41.81
33404;BME280;19751;40.274;18.268;2023-04-28T09:43:29;101665.84;;;17.33;40.86
33404;BME280;19751;40.274;18.268;2023-04-28T09:45:57;101662.69;;;17.36;40.69
33404;BME280;19751;40.274;18.268;2023-04-28T09:48:29;101660.59;;;17.45;41.67
33404;BME280;19751;40.274;18.268;2023-04-28T09:50:56;101673.78;;;17.48;41.46
33404;BME280;19751;40.274;18.268;2023-04-28T09:53:23;101675.69;;;17.54;41.68
33404;BME280;19751;40.274;18.268;2023-04-28T09:55:51;101669.16;;;17.55;41.97
33404;BME280;19751;40.274;18.268;2023-04-28T09:58:22;101663.72;;;17.55;42.01
33404;BME280;19751;40.274;18.268;2023-04-28T10:00:55;101663.91;;;17.60;42.50
33404;BME280;19751;40.274;18.268;2023-04-28T10:03:22;101658.25;;;17.62;42.05
33404;BME280;19751;40.274;18.268;2023-04-28T10:05:48;101656.75;;;17.66;41.99
33404;BME280;19751;40.274;18.268;2023-04-28T10:08:15;101654.69;;;17.68;42.10
33404;BME280;19751;40.274;18.268;2023-04-28T10:10:42;101657.59;;;17.67;42.17
33404;BME280;19751;40.274;18.268;2023-04-28T10:13:08;101650.28;;;17.67;42.65
33404;BME280;19751;40.274;18.268;2023-04-28T10:15:35;101647.94;;;17.71;42.96
33404;BME280;19751;40.274;18.268;2023-04-28T10:18:01;101641.66;;;17.70;42.71
33404;BME280;19751;40.274;18.268;2023-04-28T10:20:28;101657.81;;;17.72;43.00
33404;BME280;19751;40.274;18.268;2023-04-28T10:25:55;101637.50;;;17.74;42.14
33404;BME280;19751;40.274;18.268;2023-04-28T10:28:22;101647.97;;;17.77;41.95
33404;BME280;19751;40.274;18.268;2023-04-28T10:33:39;101637.47;;;17.81;42.26
33404;BME280;19751;40.274;18.268;2023-04-28T10:36:06;101627.84;;;17.78;41.72
33404;BME280;19751;40.274;18.268;2023-04-28T10:38:33;101631.59;;;17.84;41.73
33404;BME280;19751;40.274;18.268;2023-04-28T10:40:59;101634.50;;;17.89;41.99
33404;BME280;19751;40.274;18.268;2023-04-28T10:56:26;101606.09;;;18.10;41.58
33404;BME280;19751;40.274;18.268;2023-04-28T10:58:57;101607.56;;;18.12;40.82
33404;BME280;19751;40.274;18.268;2023-04-28T11:01:24;101602.94;;;18.13;40.34
33404;BME280;19751;40.274;18.268;2023-04-28T11:03:57;101598.72;;;18.17;40.58
33404;BME280;19751;40.274;18.268;2023-04-28T11:06:39;101605.84;;;18.18;40.73
33404;BME280;19751;40.274;18.268;2023-04-28T11:16:57;101585.00;;;18.30;39.83
33404;BME280;19751;40.274;18.268;2023-04-28T11:19:30;101587.06;;;18.35;39.43
33404;BME280;19751;40.274;18.268;2023-04-28T11:21:59;101588.47;;;18.44;39.63
33404;BME280;19751;40.274;18.268;2023-04-28T11:24:26;101577.91;;;18.54;39.58
33404;BME280;19751;40.274;18.268;2023-04-28T11:26:59;101575.09;;;18.61;39.37
33404;BME280;19751;40.274;18.268;2023-04-28T11:32:04;101568.13;;;18.72;38.97
33404;BME280;19751;40.274;18.268;2023-04-28T11:34:31;101570.44;;;18.75;38.67
33404;BME280;19751;40.274;18.268;2023-04-28T11:36:57;101564.72;;;18.76;38.80
33404;BME280;19751;40.274;18.268;2023-04-28T11:39:28;101558.84;;;18.79;39.13
33404;BME280;19751;40.274;18.268;2023-04-28T11:41:54;101555.00;;;18.87;38.90
33404;BME280;19751;40.274;18.268;2023-04-28T11:44:25;101558.09;;;18.91;38.71
33404;BME280;19751;40.274;18.268;2023-04-28T11:46:58;101556.56;;;18.95;38.36
33404;BME280;19751;40.274;18.268;2023-04-28T11:52:04;101552.34;;;18.99;38.01
33404;BME280;19751;40.274;18.268;2023-04-28T11:54:30;101560.69;;;19.04;38.13
33404;BME280;19751;40.274;18.268;2023-04-28T11:56:56;101552.44;;;19.10;38.33
33404;BME280;19751;40.274;18.268;2023-04-28T12:01:50;101551.25;;;19.25;37.86
33404;BME280;19751;40.274;18.268;2023-04-28T12:07:18;101550.75;;;19.28;37.28
33404;BME280;19751;40.274;18.268;2023-04-28T12:09:46;101547.00;;;19.29;37.38
33404;BME280;19751;40.274;18.268;2023-04-28T12:12:27;101539.16;;;19.32;37.09
33404;BME280;19751;40.274;18.268;2023-04-28T12:15:02;101542.25;;;19.36;36.72
33404;BME280;19751;40.274;18.268;2023-04-28T12:17:38;101537.19;;;19.40;36.85
33404;BME280;19751;40.274;18.268;2023-04-28T12:20:07;101535.44;;;19.45;37.33
33404;BME280;19751;40.274;18.268;2023-04-28T12:22:53;101534.66;;;19.56;36.88
33404;BME280;19751;40.274;18.268;2023-04-28T12:25:19;101533.78;;;19.63;36.23
33404;BME280;19751;40.274;18.268;2023-04-28T12:27:59;101532.72;;;19.64;36.35
33404;BME280;19751;40.274;18.268;2023-04-28T12:30:27;101524.66;;;19.69;37.00
33404;BME280;19751;40.274;18.268;2023-04-28T12:32:53;101525.78;;;19.79;37.78
33404;BME280;19751;40.274;18.268;2023-04-28T12:35:27;101522.34;;;19.84;37.27
33404;BME280;19751;40.274;18.268;2023-04-28T12:37:53;101518.31;;;19.86;37.17
33404;BME280;19751;40.274;18.268;2023-04-28T12:40:20;101525.00;;;19.91;36.21
33404;BME280;19751;40.274;18.268;2023-04-28T12:42:46;101521.78;;;19.94;35.73
33404;BME280;19751;40.274;18.268;2023-04-28T12:45:11;101514.91;;;20.03;35.50
33404;BME280;19751;40.274;18.268;2023-04-28T12:47:37;101524.09;;;20.08;36.01
33404;BME280;19751;40.274;18.268;2023-04-28T12:50:04;101515.53;;;20.05;35.68
33404;BME280;19751;40.274;18.268;2023-04-28T12:52:30;101514.91;;;20.03;34.25
33404;BME280;19751;40.274;18.268;2023-04-28T12:54:58;101521.56;;;20.07;34.14
33404;BME280;19751;40.274;18.268;2023-04-28T12:57:24;101510.63;;;20.07;33.93
33404;BME280;19751;40.274;18.268;2023-04-28T12:59:50;101517.91;;;20.13;34.67
33404;BME280;19751;40.274;18.268;2023-04-28T13:02:17;101514.38;;;20.24;33.22
33404;BME280;19751;40.274;18.268;2023-04-28T13:04:42;101514.25;;;20.31;33.22
33404;BME280;19751;40.274;18.268;2023-04-28T13:07:11;101506.88;;;20.31;32.06
33404;BME280;19751;40.274;18.268;2023-04-28T13:09:36;101508.22;;;20.29;32.56
33404;BME280;19751;40.274;18.268;2023-04-28T13:12:02;101511.88;;;20.34;33.17